West Brownsville, Pennsylvania
Current Conditions -  °F | °C
As of 2:15 PM on Tuesday 21 Oct 2014 (Local Time) from KAFJ Reporting Station
NA  
Wind Chill: 52°   Ceiling: NA
Heat Index: 52°   Visibility: NA
Dew Point: 46°   Wind: 6mph
Humidity: 82%   Direction: 310°NW
Pressure: 29.9"   Gusts: NA
Location:  40.0327°N, 79.9541°W
Report Text: KAFJ 211815Z AUTO 31005KT 11/08 A2990 RMK AO1
Loading
Personal Weather Stations






























Interactive Weather Map
Tropical Storm Tracking
New forecast layout! Learn more

10-Day Weather Forecast

Advertisements
Track Severe Weather on mobile